ADDS METAR Data INFO
IDs: Format: Raw Decoded Include TAF

Data at: 1717 UTC 23 Oct 2017

KIRK 231655Z AUTO 29011G17KT 10SM CLR 16/08 A2987 RMK AO2 SLP118 T01560083
KIRK 231555Z AUTO 24006KT 10SM FEW120 12/08 A2988 RMK AO2 SLP121 T01220083
KIRK 231455Z AUTO 23006KT 10SM CLR 10/08 A2989 RMK AO2 SLP127 T01000078 58021
KIRK 231355Z AUTO 22005KT 10SM CLR 08/07 A2992 RMK AO2 SLP138 T00780072
KIRK 231255Z AUTO 23006KT 10SM CLR 08/06 A2994 RMK AO2 SLP144 T00780061
KIRK 231155Z AUTO 15006KT 10SM CLR 06/06 A2995 RMK AO2 SLP149 70004 T00610061 10094 20056 55012
KIRK 231055Z AUTO 26005KT 10SM CLR 08/07 A2993 RMK AO2 SLP141 T00780072
KIRK 230955Z AUTO 26007KT 10SM CLR 09/07 A2994 RMK AO2 SLP144 T00890072
KIRK 230855Z AUTO 25005KT 10SM CLR 08/08 A2999 RMK AO2 SLP160 T00830078 56019
KIRK 230755Z AUTO 20004KT 10SM CLR 08/08 A3001 RMK AO2 SLP165 T00780078
KIRK 230655Z AUTO 18003KT 10SM CLR 08/08 A3003 RMK AO2 SLP172 T00780078
KIRK 230555Z AUTO 00000KT 10SM CLR 07/07 A3005 RMK AO2 SLP180 T00720072 10111 20072 401610072 55008
KIRK 230455Z AUTO 19003KT 10SM CLR 09/08 A3004 RMK AO2 SLP178 T00890083
KIRK 230355Z AUTO 27004KT 10SM CLR 09/09 A3006 RMK AO2 SLP184 T00890089
KIRK 230255Z AUTO 00000KT 10SM CLR 09/09 A3007 RMK AO2 SLP189 T00940094 58005
KIRK 230155Z AUTO 00000KT 10SM CLR 09/09 A3008 RMK AO2 SLP191 T00940094
KIRK 230055Z AUTO 00000KT 10SM CLR 10/10 A3009 RMK AO2 SLP197 T01000100
KIRK 222355Z AUTO 00000KT 10SM CLR 11/11 A3009 RMK AO2 SLP193 T01110106 10144 20111 58004
KIRK 222255Z AUTO 00000KT 10SM CLR 12/11 A3010 RMK AO2 SLP196 T01220106
KIRK 222155Z AUTO 01004KT 10SM CLR 14/09 A3009 RMK AO2 SLP194 T01390094
KIRK 222055Z AUTO 35004KT 10SM CLR 14/09 A3010 RMK AO2 SLP196 T01390089 55001
KIRK 221955Z AUTO 34006KT 10SM CLR 14/10 A3008 RMK AO2 SLP191 T01390100
KIRK 221855Z AUTO 30006KT 10SM BKN110 13/10 A3011 RMK AO2 SLP200 T01280100
KIRK 221755Z AUTO 29005KT 10SM SCT090 OVC110 12/10 A3010 RMK AO2 SLP196 60004 T01170100 10117 20100 53014
KIRK 221655Z AUTO 32006KT 10SM OVC090 12/11 A3008 RMK AO2 SLP189 T01170106
KIRK 221622Z AUTO 31007KT 10SM FEW009 OVC080 11/11 A3007 RMK AO2 T01110106
KIRK 221555Z AUTO 34005KT 10SM OVC070 11/10 A3007 RMK AO2 SLP186 T01060100
KIRK 221455Z AUTO 34006KT 10SM OVC055 11/11 A3006 RMK AO2 RAE00 SLP179 P0000 60004 T01060106 51025
KIRK 221412Z AUTO 32006KT 10SM FEW008 SCT014 OVC044 10/10 A3006 RMK AO2 RAE00 P0000 T01000100
KIRK 221355Z AUTO 31006KT 7SM -RA BKN010 BKN014 OVC039 10/10 A3006 RMK AO2 RAB30 SLP179 P0001 T01000100
KIRK 221255Z AUTO 33008KT 10SM BKN010 OVC031 10/10 A3001 RMK AO2 RAE30 SLP163 P0003 T01000100
KIRK 221247Z AUTO 34009KT 10SM BKN010 OVC031 10/10 A3001 RMK AO2 RAE30 P0003 T01000100
KIRK 221223Z AUTO 34007KT 10SM -RA FEW009 SCT031 OVC080 10/10 A2999 RMK AO2 P0003 T01000100
KIRK 221155Z AUTO 36008G16KT 9SM -RA OVC085 10/10 A2998 RMK AO2 SLP153 P0004 60068 70142 T01000100 10161 20100 51008
KIRK 221055Z AUTO 36012KT 10SM -RA OVC100 10/10 A2996 RMK AO2 SLP146 P0007 T01000100
KIRK 221011Z AUTO 35011KT 9SM -RA FEW010 BKN042 OVC095 11/11 A2998 RMK AO2 P0003 T01060106
KIRK 220955Z AUTO 34009KT 7SM -RA FEW010 BKN025 OVC038 11/11 A2998 RMK AO2 SLP152 P0012 T01060106
KIRK 220917Z AUTO 34007KT 8SM -RA FEW012 BKN025 OVC090 11/11 A2997 RMK AO2 P0004 T01060106
KIRK 220855Z AUTO 34010G19KT 7SM -RA SCT011 BKN035 OVC090 11/11 A2996 RMK AO2 SLP144 P0019 60045 T01060106 50024
KIRK 220815Z AUTO 34015KT 6SM RA BR SCT011 BKN045 OVC100 11/11 A2993 RMK AO2 LTG DSNT E PRESFR P0009 T01110111
KIRK 220755Z AUTO 33011G20KT 5SM RA BR OVC009 12/12 A2997 RMK AO2 SLP146 P0014 T01170117
KIRK 220739Z AUTO 33009KT 5SM RA BR BKN008 OVC080 12/12 A2993 RMK AO2 LTG DSNT S P0008 T01220122
KIRK 220655Z AUTO 34013G22KT 5SM -RA BR SCT007 BKN050 OVC075 13/13 A2991 RMK AO2 SLP127 P0012 T01280128
KIRK 220606Z AUTO 34007KT 9SM -RA BKN008 OVC080 16/16 A2988 RMK AO2 LTG DSNT NE-SE P0001 T01610161
KIRK 220555Z AUTO 32008KT 9SM -RA FEW010 SCT041 OVC075 16/16 A2988 RMK AO2 LTG DSNT NE-S TSE37 SLP117 P0040 60074 T01610161 10222 20161 402670161 50001
KIRK 220537Z AUTO 33007KT 3SM VCTS +RA BR FEW005 BKN041 OVC065 16/16 A2989 RMK AO2 LTG DSNT NE-SE TSE37 P0035 T01610161
KIRK 220529Z AUTO 28008KT 2SM +TSRA BR FEW005 BKN035 OVC070 16/16 A2990 RMK AO2 LTG DSNT NE AND SE P0031 T01610161
KIRK 220522Z AUTO 31008KT 3SM +TSRA BR SCT005 BKN035 OVC049 16/16 A2989 RMK AO2 LTG DSNT ALQDS P0022 T01610161